Time;durP1;ratioP1;P1;durP2;ratioP2;P2;SDS_P1;SDS_P2;PMS_P1;PMS_P2;Temp;Humidity;BMP_temperature;BMP_pressure;BME280_temperature;BME280_humidity;BME280_pressure;Samples;Min_cycle;Max_cycle;Signal;HPM_P1;HPM_P2
2021/10/05 00:00:41;;;;;;;0.80;0.80;;;;;17.00;98076.00;;;;5096329;28;20689;-60
2021/10/05 00:03:07;;;;;;;0.80;0.80;;;;;17.00;98079.00;;;;5096141;28;20226;-60
2021/10/05 00:05:34;;;;;;;0.77;0.73;;;;;17.00;98075.00;;;;5096468;28;20283;-60
2021/10/05 00:08:00;;;;;;;1.27;0.70;;;;;17.00;98069.00;;;;5096087;28;20731;-60
2021/10/05 00:10:27;;;;;;;1.10;1.00;;;;;17.00;98073.00;;;;5096077;28;20187;-60
2021/10/05 00:12:54;;;;;;;0.90;0.80;;;;;17.00;98061.00;;;;5096056;28;20234;-61
2021/10/05 00:15:22;;;;;;;0.73;0.73;;;;;17.00;98061.00;;;;5095921;28;20208;-61
2021/10/05 00:17:49;;;;;;;0.70;0.67;;;;;17.00;98060.00;;;;5095924;28;20189;-60
2021/10/05 00:20:15;;;;;;;0.80;0.80;;;;;17.00;98059.00;;;;5095819;28;20266;-60
2021/10/05 00:22:43;;;;;;;0.70;0.70;;;;;17.00;98061.00;;;;5095723;28;20204;-60
2021/10/05 00:25:10;;;;;;;1.03;0.90;;;;;17.00;98061.00;;;;5094784;28;20209;-60
2021/10/05 00:27:37;;;;;;;0.97;0.87;;;;;17.00;98061.00;;;;5095746;28;20252;-60
2021/10/05 00:30:05;;;;;;;1.27;0.80;;;;;17.00;98057.00;;;;5094426;28;20695;-60
2021/10/05 00:32:32;;;;;;;0.80;0.80;;;;;17.00;98047.00;;;;5095697;28;20188;-60
2021/10/05 00:34:59;;;;;;;0.80;0.80;;;;;17.00;98051.00;;;;5095592;28;20206;-60
2021/10/05 00:37:26;;;;;;;1.17;0.70;;;;;17.00;98045.00;;;;5095576;28;20591;-60
2021/10/05 00:39:52;;;;;;;1.87;0.93;;;;;17.00;98049.00;;;;5096016;28;20211;-60
2021/10/05 00:42:19;;;;;;;0.93;0.73;;;;;17.00;98044.00;;;;5095528;28;20243;-60
2021/10/05 00:44:48;;;;;;;0.80;0.80;;;;;17.00;98046.00;;;;5095532;28;20217;-60
2021/10/05 00:47:15;;;;;;;0.90;0.90;;;;;17.00;98051.00;;;;5096014;28;20756;-60
2021/10/05 00:49:45;;;;;;;0.73;0.73;;;;;17.00;98052.00;;;;5095389;28;20212;-60
2021/10/05 00:52:14;;;;;;;0.93;0.80;;;;;16.90;98053.00;;;;5095580;28;20591;-60
2021/10/05 00:54:41;;;;;;;1.10;0.60;;;;;16.90;98050.00;;;;5095266;28;20211;-60
2021/10/05 00:57:09;;;;;;;0.60;0.60;;;;;16.90;98051.00;;;;5095226;28;20190;-60
2021/10/05 00:59:36;;;;;;;2.00;0.80;;;;;16.90;98041.00;;;;5095386;28;20281;-61
2021/10/05 01:02:09;;;;;;;0.70;0.70;;;;;17.00;98027.00;;;;5095399;28;20248;-60
2021/10/05 01:04:35;;;;;;;0.80;0.80;;;;;16.90;98028.00;;;;5095853;28;20563;-60
2021/10/05 01:07:11;;;;;;;0.63;0.63;;;;;16.90;98023.00;;;;5095057;28;20188;-60
2021/10/05 01:09:38;;;;;;;0.70;0.70;;;;;16.90;98013.00;;;;5095272;28;20171;-60
2021/10/05 01:12:05;;;;;;;0.83;0.83;;;;;16.90;98010.00;;;;5095219;28;20611;-60
2021/10/05 01:14:32;;;;;;;0.80;0.80;;;;;16.90;98001.00;;;;5095082;28;20624;-60
2021/10/05 01:17:00;;;;;;;0.80;0.80;;;;;16.90;98004.00;;;;5094854;28;20243;-60
2021/10/05 01:19:27;;;;;;;0.80;0.80;;;;;17.00;97997.00;;;;5094760;28;20233;-60
2021/10/05 01:21:53;;;;;;;0.60;0.60;;;;;16.90;97996.00;;;;5094946;28;20729;-60
2021/10/05 01:24:21;;;;;;;0.70;0.70;;;;;16.90;97994.00;;;;5095234;28;20214;-60
2021/10/05 01:26:48;;;;;;;0.67;0.67;;;;;16.90;97991.00;;;;5094651;28;20184;-60
2021/10/05 01:29:17;;;;;;;0.77;0.77;;;;;16.90;97983.00;;;;5094600;28;20190;-60
2021/10/05 01:31:46;;;;;;;0.70;0.70;;;;;16.90;97981.00;;;;5095099;28;20584;-60
2021/10/05 01:34:14;;;;;;;0.63;0.63;;;;;16.90;97985.00;;;;5094454;28;20707;-60
2021/10/05 01:36:41;;;;;;;0.70;0.70;;;;;16.90;97977.00;;;;5094332;28;20349;-60
2021/10/05 01:39:28;;;;;;;0.60;0.60;;;;;16.90;97978.00;;;;5094368;28;20206;-60
2021/10/05 01:42:08;;;;;;;0.70;0.70;;;;;16.90;97973.00;;;;5094412;28;20174;-60
2021/10/05 01:44:35;;;;;;;0.60;0.60;;;;;16.90;97976.00;;;;5094198;28;20202;-61
2021/10/05 01:47:05;;;;;;;0.60;0.60;;;;;16.90;97968.00;;;;5094282;28;20188;-60
2021/10/05 01:49:32;;;;;;;0.90;0.70;;;;;16.90;97964.00;;;;5094233;28;20194;-60
2021/10/05 01:51:59;;;;;;;0.80;0.80;;;;;16.90;97946.00;;;;5094334;28;20660;-60
2021/10/05 01:54:25;;;;;;;0.63;0.63;;;;;16.90;97951.00;;;;5094320;28;20206;-60
2021/10/05 01:56:52;;;;;;;0.77;0.70;;;;;16.90;97943.00;;;;5094136;28;20251;-60
2021/10/05 01:59:19;;;;;;;0.70;0.70;;;;;16.90;97938.00;;;;5093984;28;20204;-60
2021/10/05 02:01:45;;;;;;;0.80;0.80;;;;;16.90;97945.00;;;;5094007;28;20191;-60
2021/10/05 02:04:12;;;;;;;0.70;0.70;;;;;16.90;97943.00;;;;5093866;28;20761;-60
2021/10/05 02:06:39;;;;;;;0.90;0.70;;;;;16.90;97945.00;;;;5093896;28;20192;-60
2021/10/05 02:09:08;;;;;;;0.87;0.70;;;;;16.90;97941.00;;;;5093932;28;20184;-60
2021/10/05 02:11:35;;;;;;;0.67;0.67;;;;;16.90;97942.00;;;;5093840;28;20184;-60
2021/10/05 02:14:03;;;;;;;0.70;0.70;;;;;16.90;97939.00;;;;5093715;28;20763;-60
2021/10/05 02:16:31;;;;;;;0.77;0.70;;;;;16.90;97942.00;;;;5094054;28;20197;-60
2021/10/05 02:18:58;;;;;;;0.70;0.70;;;;;16.90;97928.00;;;;5093962;28;20241;-60
2021/10/05 02:21:24;;;;;;;0.70;0.63;;;;;16.90;97921.00;;;;5093949;28;20616;-60
2021/10/05 02:26:37;;;;;;;0.80;0.80;;;;;16.90;97920.00;;;;5093928;28;20183;-60
2021/10/05 02:29:04;;;;;;;0.90;0.70;;;;;16.90;97909.00;;;;5093604;28;20229;-60
2021/10/05 02:31:32;;;;;;;0.73;0.73;;;;;16.90;97902.00;;;;5093586;28;20188;-60
2021/10/05 02:33:59;;;;;;;0.70;0.70;;;;;16.90;97900.00;;;;5093526;28;20242;-60
2021/10/05 02:36:26;;;;;;;0.60;0.60;;;;;16.90;97891.00;;;;5093979;28;20202;-60
2021/10/05 02:38:52;;;;;;;0.60;0.60;;;;;16.90;97895.00;;;;5093410;28;20210;-60
2021/10/05 02:41:19;;;;;;;0.80;0.80;;;;;16.90;97891.00;;;;5093454;28;20190;-61
2021/10/05 02:43:45;;;;;;;0.67;0.67;;;;;16.90;97889.00;;;;5093618;28;20208;-60
2021/10/05 02:46:12;;;;;;;0.60;0.60;;;;;16.90;97884.00;;;;5093579;28;20195;-60
2021/10/05 02:48:39;;;;;;;0.97;0.87;;;;;16.90;97892.00;;;;5093105;28;20195;-60
2021/10/05 02:51:05;;;;;;;0.80;0.80;;;;;16.80;97875.00;;;;5093309;28;20676;-60
2021/10/05 02:53:32;;;;;;;0.57;0.57;;;;;16.90;97878.00;;;;5093275;28;20263;-60
2021/10/05 02:55:58;;;;;;;0.67;0.60;;;;;16.90;97882.00;;;;5093569;28;20247;-60
2021/10/05 02:58:25;;;;;;;0.93;0.60;;;;;16.90;97878.00;;;;5093293;28;20194;-60
2021/10/05 03:00:51;;;;;;;0.60;0.60;;;;;16.80;97884.00;;;;5093184;28;20216;-60
2021/10/05 03:03:18;;;;;;;0.60;0.60;;;;;16.90;97879.00;;;;5093196;28;20271;-60
2021/10/05 03:05:44;;;;;;;0.63;0.63;;;;;16.80;97879.00;;;;5093210;28;20187;-60
2021/10/05 03:08:11;;;;;;;0.70;0.70;;;;;16.90;97870.00;;;;5093202;28;20201;-60
2021/10/05 03:10:38;;;;;;;0.63;0.63;;;;;16.80;97871.00;;;;5093178;28;20181;-60
2021/10/05 03:13:05;;;;;;;0.70;0.60;;;;;16.80;97865.00;;;;5093080;28;20188;-60
2021/10/05 03:15:31;;;;;;;0.80;0.80;;;;;16.90;97861.00;;;;5093115;28;20194;-60
2021/10/05 03:17:58;;;;;;;0.90;0.90;;;;;16.80;97866.00;;;;5093702;28;20205;-60
2021/10/05 03:20:25;;;;;;;0.80;0.80;;;;;16.80;97862.00;;;;5091789;28;20214;-60
2021/10/05 03:22:52;;;;;;;0.57;0.57;;;;;16.80;97859.00;;;;5093013;28;20211;-60
2021/10/05 03:25:19;;;;;;;0.80;0.80;;;;;16.80;97866.00;;;;5093290;28;20242;-60
2021/10/05 03:27:47;;;;;;;1.00;0.90;;;;;16.80;97867.00;;;;5093010;28;20189;-60
2021/10/05 03:30:14;;;;;;;0.70;0.70;;;;;16.80;97873.00;;;;5093078;28;20195;-60
2021/10/05 03:32:41;;;;;;;0.87;0.60;;;;;16.80;97870.00;;;;5093535;28;20199;-60
2021/10/05 03:35:08;;;;;;;0.70;0.70;;;;;16.80;97877.00;;;;5092893;28;20207;-60
2021/10/05 03:37:34;;;;;;;0.73;0.73;;;;;16.80;97875.00;;;;5092910;28;20195;-60
2021/10/05 03:40:01;;;;;;;0.60;0.60;;;;;16.80;97872.00;;;;5092834;28;20211;-60
2021/10/05 03:42:27;;;;;;;1.13;0.53;;;;;16.80;97863.00;;;;5092880;28;20208;-60
2021/10/05 03:44:54;;;;;;;0.57;0.57;;;;;16.80;97866.00;;;;5092797;28;20207;-60
2021/10/05 03:47:20;;;;;;;0.60;0.60;;;;;16.80;97865.00;;;;5092919;28;20197;-60
2021/10/05 03:49:47;;;;;;;0.63;0.63;;;;;16.80;97855.00;;;;5092805;28;20198;-60
2021/10/05 03:52:14;;;;;;;0.70;0.70;;;;;16.80;97847.00;;;;5092794;28;20192;-60
2021/10/05 03:54:42;;;;;;;0.60;0.60;;;;;16.80;97840.00;;;;5092881;28;20263;-60
2021/10/05 03:57:09;;;;;;;0.70;0.70;;;;;16.80;97836.00;;;;5092762;28;20195;-60
2021/10/05 03:59:35;;;;;;;0.70;0.70;;;;;16.80;97835.00;;;;5092900;28;20210;-60
2021/10/05 04:02:02;;;;;;;0.70;0.70;;;;;16.80;97821.00;;;;5096886;28;20202;-60
2021/10/05 04:04:29;;;;;;;0.70;0.70;;;;;16.80;97815.00;;;;5096213;28;20210;-60
2021/10/05 04:06:55;;;;;;;0.83;0.60;;;;;16.80;97812.00;;;;5096647;28;20182;-60
2021/10/05 04:09:22;;;;;;;0.60;0.60;;;;;16.80;97807.00;;;;5096726;28;20184;-60
2021/10/05 04:11:49;;;;;;;0.60;0.60;;;;;16.80;97807.00;;;;5096712;28;20187;-60
2021/10/05 04:14:15;;;;;;;0.63;0.63;;;;;16.80;97816.00;;;;5096045;28;20209;-60
2021/10/05 04:16:42;;;;;;;0.70;0.70;;;;;16.80;97825.00;;;;5096011;28;20244;-60
2021/10/05 04:19:08;;;;;;;0.60;0.60;;;;;16.80;97822.00;;;;5095949;28;20244;-60
2021/10/05 04:21:35;;;;;;;0.70;0.70;;;;;16.80;97816.00;;;;5096252;28;20188;-60
2021/10/05 04:24:02;;;;;;;0.60;0.60;;;;;16.80;97808.00;;;;5096858;28;20215;-60
2021/10/05 04:26:28;;;;;;;0.70;0.70;;;;;16.80;97803.00;;;;5095847;28;20220;-60
2021/10/05 04:28:54;;;;;;;0.70;0.70;;;;;16.80;97803.00;;;;5096075;28;20182;-60
2021/10/05 04:31:21;;;;;;;0.60;0.60;;;;;16.80;97803.00;;;;5095769;28;20191;-60
2021/10/05 04:33:48;;;;;;;0.60;0.60;;;;;16.80;97808.00;;;;5095664;28;20293;-60
2021/10/05 04:36:14;;;;;;;0.60;0.60;;;;;16.80;97804.00;;;;5095686;28;20190;-60
2021/10/05 04:38:41;;;;;;;1.20;0.60;;;;;16.80;97800.00;;;;5095903;28;20759;-60
2021/10/05 04:41:07;;;;;;;1.07;0.60;;;;;16.80;97794.00;;;;5095551;28;20214;-60
2021/10/05 04:43:34;;;;;;;0.60;0.60;;;;;16.80;97801.00;;;;5095542;28;20218;-60
2021/10/05 04:46:00;;;;;;;0.57;0.57;;;;;16.80;97794.00;;;;5095459;28;20244;-59
2021/10/05 04:48:27;;;;;;;0.50;0.50;;;;;16.80;97795.00;;;;5096071;28;20230;-60
2021/10/05 04:50:54;;;;;;;0.60;0.60;;;;;16.80;97803.00;;;;5095942;28;20653;-60
2021/10/05 04:53:21;;;;;;;0.50;0.50;;;;;16.80;97786.00;;;;5095266;28;20195;-61
2021/10/05 04:55:48;;;;;;;0.60;0.60;;;;;16.80;97793.00;;;;5095854;28;20538;-59
2021/10/05 04:58:15;;;;;;;0.57;0.57;;;;;16.80;97797.00;;;;5095791;28;20249;-60
2021/10/05 05:00:41;;;;;;;0.60;0.60;;;;;16.70;97796.00;;;;5095145;28;20273;-60
2021/10/05 05:03:08;;;;;;;0.70;0.70;;;;;16.80;97794.00;;;;5095091;28;20191;-60
2021/10/05 05:05:37;;;;;;;0.60;0.60;;;;;16.80;97784.00;;;;5095089;28;20192;-60
2021/10/05 05:08:04;;;;;;;0.70;0.70;;;;;16.80;97783.00;;;;5095163;28;20227;-60
2021/10/05 05:10:31;;;;;;;0.70;0.70;;;;;16.80;97782.00;;;;5094854;28;20180;-60
2021/10/05 05:12:58;;;;;;;0.70;0.70;;;;;16.80;97775.00;;;;5095276;28;20185;-60
2021/10/05 05:15:24;;;;;;;0.83;0.40;;;;;16.80;97773.00;;;;5094843;28;20205;-60
2021/10/05 05:17:51;;;;;;;0.60;0.60;;;;;16.80;97769.00;;;;5094858;28;20192;-61
2021/10/05 05:20:18;;;;;;;0.60;0.60;;;;;16.80;97767.00;;;;5094766;28;20196;-60
2021/10/05 05:22:45;;;;;;;0.70;0.57;;;;;16.80;97760.00;;;;5094847;28;20703;-60
2021/10/05 05:25:12;;;;;;;0.50;0.50;;;;;16.80;97755.00;;;;5094666;28;20211;-60
2021/10/05 05:27:39;;;;;;;0.67;0.67;;;;;16.80;97759.00;;;;5094688;28;20193;-60
2021/10/05 05:30:07;;;;;;;0.60;0.60;;;;;16.90;97759.00;;;;5094926;28;20232;-62
2021/10/05 05:32:34;;;;;;;0.50;0.50;;;;;16.90;97768.00;;;;5094854;28;20211;-60
2021/10/05 05:35:01;;;;;;;0.50;0.50;;;;;16.90;97770.00;;;;5093212;28;20218;-60
2021/10/05 05:37:28;;;;;;;0.60;0.60;;;;;16.90;97771.00;;;;5094512;28;20180;-60
2021/10/05 05:39:55;;;;;;;0.60;0.60;;;;;17.00;97766.00;;;;5094628;28;20253;-60
2021/10/05 05:42:21;;;;;;;0.60;0.60;;;;;17.10;97758.00;;;;5094421;28;20272;-59
2021/10/05 05:44:50;;;;;;;0.70;0.70;;;;;17.10;97755.00;;;;5094272;28;20214;-61
2021/10/05 05:47:16;;;;;;;0.50;0.50;;;;;17.10;97756.00;;;;5094284;28;20657;-60
2021/10/05 05:49:43;;;;;;;0.60;0.60;;;;;17.20;97756.00;;;;5094339;28;20187;-60
2021/10/05 05:52:09;;;;;;;0.50;0.50;;;;;17.20;97747.00;;;;5094361;28;20191;-60
2021/10/05 05:54:36;;;;;;;1.07;0.70;;;;;17.20;97740.00;;;;5094629;28;20690;-60
2021/10/05 05:57:02;;;;;;;1.30;0.60;;;;;17.30;97737.00;;;;5094163;28;20199;-60
2021/10/05 05:59:29;;;;;;;0.60;0.60;;;;;17.30;97739.00;;;;5094215;28;20191;-60
2021/10/05 06:01:55;;;;;;;0.70;0.70;;;;;17.30;97736.00;;;;5094325;28;20190;-60
2021/10/05 06:04:22;;;;;;;0.70;0.70;;;;;17.30;97740.00;;;;5094253;28;20216;-60
2021/10/05 06:06:49;;;;;;;0.97;0.70;;;;;17.30;97740.00;;;;5093966;28;20195;-60
2021/10/05 06:09:16;;;;;;;0.60;0.60;;;;;17.30;97746.00;;;;5094505;28;20279;-61
2021/10/05 06:11:43;;;;;;;0.60;0.60;;;;;17.30;97744.00;;;;5093904;28;20233;-60
2021/10/05 06:14:10;;;;;;;0.67;0.67;;;;;17.30;97745.00;;;;5093812;28;20211;-60
2021/10/05 06:16:37;;;;;;;0.60;0.60;;;;;17.30;97737.00;;;;5093951;28;20596;-60
2021/10/05 06:19:06;;;;;;;0.70;0.70;;;;;17.30;97737.00;;;;5094096;28;20184;-61
2021/10/05 06:21:32;;;;;;;0.67;0.67;;;;;17.30;97744.00;;;;5093626;28;20209;-61
2021/10/05 06:23:59;;;;;;;0.87;0.70;;;;;17.40;97738.00;;;;5092886;28;20623;-60
2021/10/05 06:26:25;;;;;;;0.60;0.60;;;;;17.40;97742.00;;;;5093632;28;20203;-60
2021/10/05 06:28:52;;;;;;;0.70;0.70;;;;;17.40;97737.00;;;;5093636;28;20191;-60
2021/10/05 06:31:18;;;;;;;0.70;0.70;;;;;17.40;97736.00;;;;5093618;28;20527;-60
2021/10/05 06:33:45;;;;;;;0.70;0.70;;;;;17.40;97721.00;;;;5093499;28;20204;-60
2021/10/05 06:36:11;;;;;;;0.60;0.60;;;;;17.40;97734.00;;;;5093499;28;20708;-61
2021/10/05 06:38:38;;;;;;;0.57;0.57;;;;;17.40;97727.00;;;;5093724;28;20237;-59
2021/10/05 06:41:05;;;;;;;0.70;0.70;;;;;17.50;97732.00;;;;5093940;28;20215;-63
2021/10/05 06:43:31;;;;;;;0.70;0.70;;;;;17.50;97722.00;;;;5093377;28;20219;-60
2021/10/05 06:45:58;;;;;;;0.70;0.70;;;;;17.50;97726.00;;;;5093413;28;20241;-61
2021/10/05 06:48:25;;;;;;;1.10;0.77;;;;;17.60;97728.00;;;;5093407;28;20180;-60
2021/10/05 06:50:51;;;;;;;0.77;0.73;;;;;17.60;97721.00;;;;5093364;28;20188;-60
2021/10/05 06:53:18;;;;;;;0.67;0.67;;;;;17.60;97717.00;;;;5093284;28;20194;-59
2021/10/05 06:55:46;;;;;;;1.80;0.87;;;;;17.60;97719.00;;;;5093628;28;20201;-60
2021/10/05 06:58:13;;;;;;;0.87;0.87;;;;;17.60;97711.00;;;;5093311;28;20217;-60
2021/10/05 07:00:41;;;;;;;0.60;0.60;;;;;17.60;97697.00;;;;5093185;28;20211;-59
2021/10/05 07:03:08;;;;;;;0.73;0.70;;;;;17.60;97697.00;;;;5093203;28;20184;-60
2021/10/05 07:05:35;;;;;;;0.90;0.90;;;;;17.60;97696.00;;;;5093229;28;20184;-60
2021/10/05 07:08:08;;;;;;;0.80;0.80;;;;;17.50;97702.00;;;;5093195;28;20195;-60
2021/10/05 07:10:36;;;;;;;0.80;0.80;;;;;17.50;97701.00;;;;5093487;28;20231;-59
2021/10/05 07:13:04;;;;;;;0.77;0.77;;;;;17.40;97704.00;;;;5093679;28;20184;-61
2021/10/05 07:15:31;;;;;;;0.70;0.60;;;;;17.40;97705.00;;;;5093345;28;20241;-59
2021/10/05 07:17:58;;;;;;;0.70;0.70;;;;;17.30;97699.00;;;;5092995;28;20191;-59
2021/10/05 07:20:27;;;;;;;0.80;0.80;;;;;17.30;97695.00;;;;5092892;28;20208;-60
2021/10/05 07:22:53;;;;;;;2.30;0.90;;;;;17.30;97692.00;;;;5092758;28;20249;-60
2021/10/05 07:25:20;;;;;;;0.80;0.80;;;;;17.30;97691.00;;;;5093390;28;20210;-59
2021/10/05 07:27:52;;;;;;;1.43;1.10;;;;;17.30;97687.00;;;;5093248;28;20631;-59
2021/10/05 07:30:23;;;;;;;1.37;0.80;;;;;17.30;97677.00;;;;5093017;28;20187;-59
2021/10/05 07:32:52;;;;;;;1.03;0.93;;;;;17.30;97672.00;;;;5092958;28;20211;-60
2021/10/05 07:35:19;;;;;;;0.93;0.90;;;;;17.30;97674.00;;;;5096049;28;20715;-59
2021/10/05 07:37:47;;;;;;;1.67;0.90;;;;;17.30;97679.00;;;;5096605;28;20184;-59
2021/10/05 07:40:20;;;;;;;2.40;1.00;;;;;17.30;97681.00;;;;5096486;28;20329;-59
2021/10/05 07:42:48;;;;;;;0.77;0.77;;;;;17.20;97672.00;;;;5096833;28;20191;-60
2021/10/05 07:45:15;;;;;;;0.90;0.87;;;;;17.20;97677.00;;;;5096407;28;20242;-60
2021/10/05 07:47:42;;;;;;;2.10;0.90;;;;;17.20;97673.00;;;;5095826;28;20184;-60
2021/10/05 07:50:09;;;;;;;2.07;1.17;;;;;17.20;97670.00;;;;5096419;28;20196;-59
2021/10/05 07:52:36;;;;;;;0.97;0.90;;;;;17.20;97659.00;;;;5096382;28;20187;-60
2021/10/05 07:55:04;;;;;;;1.30;1.20;;;;;17.20;97656.00;;;;5096836;28;20215;-60
2021/10/05 07:57:31;;;;;;;1.13;1.00;;;;;17.20;97653.00;;;;5096338;28;20195;-60
2021/10/05 07:59:57;;;;;;;1.13;1.03;;;;;17.20;97654.00;;;;5096605;28;20189;-59
2021/10/05 08:02:24;;;;;;;0.90;0.90;;;;;17.20;97662.00;;;;5096219;28;20237;-60
2021/10/05 08:04:52;;;;;;;1.13;1.00;;;;;17.20;97658.00;;;;5094984;28;20206;-60
2021/10/05 08:07:18;;;;;;;1.37;1.00;;;;;17.20;97660.00;;;;5096369;28;20186;-59
2021/10/05 08:09:45;;;;;;;1.63;1.23;;;;;17.20;97665.00;;;;5096026;28;20248;-59
2021/10/05 08:12:11;;;;;;;1.20;1.07;;;;;17.20;97672.00;;;;5096283;28;20198;-59
2021/10/05 08:14:39;;;;;;;0.87;0.87;;;;;17.20;97664.00;;;;5095786;28;20261;-59
2021/10/05 08:17:06;;;;;;;1.17;1.00;;;;;17.20;97661.00;;;;5095831;28;20665;-58
2021/10/05 08:19:32;;;;;;;2.83;1.00;;;;;17.20;97669.00;;;;5096364;28;20191;-60
2021/10/05 08:21:59;;;;;;;1.30;1.03;;;;;17.20;97673.00;;;;5095604;28;20693;-60
2021/10/05 08:24:26;;;;;;;1.07;1.00;;;;;17.20;97676.00;;;;5095739;28;20210;-59
2021/10/05 08:26:53;;;;;;;1.10;1.00;;;;;17.20;97674.00;;;;5096037;28;20193;-59
2021/10/05 08:29:19;;;;;;;0.80;0.80;;;;;17.20;97669.00;;;;5095704;28;20199;-60
2021/10/05 08:31:47;;;;;;;1.07;1.00;;;;;17.20;97675.00;;;;5094894;28;20215;-61
2021/10/05 08:34:14;;;;;;;1.30;1.20;;;;;17.30;97662.00;;;;5095517;28;20286;-60
2021/10/05 08:36:40;;;;;;;1.00;1.00;;;;;17.30;97659.00;;;;5095701;28;20229;-59
2021/10/05 08:39:07;;;;;;;1.33;1.10;;;;;17.30;97656.00;;;;5095537;28;20188;-60
2021/10/05 08:41:34;;;;;;;1.00;1.00;;;;;17.40;97663.00;;;;5094031;28;20295;-59
2021/10/05 08:44:01;;;;;;;1.23;1.00;;;;;17.40;97654.00;;;;5095283;28;20211;-59
2021/10/05 08:46:28;;;;;;;1.30;1.20;;;;;17.40;97652.00;;;;5094484;28;20192;-60
2021/10/05 08:48:56;;;;;;;1.20;1.10;;;;;17.40;97638.00;;;;5095314;28;20240;-60
2021/10/05 08:51:23;;;;;;;1.03;1.03;;;;;17.50;97639.00;;;;5095167;28;20191;-59
2021/10/05 08:53:49;;;;;;;1.53;1.17;;;;;17.50;97634.00;;;;5095158;28;20211;-59
2021/10/05 08:56:16;;;;;;;1.20;1.10;;;;;17.50;97624.00;;;;5095072;28;20184;-60
2021/10/05 08:58:42;;;;;;;1.03;1.00;;;;;17.50;97631.00;;;;5095013;28;20648;-59
2021/10/05 09:01:17;;;;;;;1.17;1.10;;;;;17.50;97623.00;;;;5094863;28;20622;-60
2021/10/05 09:03:52;;;;;;;1.33;1.23;;;;;17.40;97621.00;;;;5095241;28;20253;-60
2021/10/05 09:06:21;;;;;;;1.10;1.10;;;;;17.40;97623.00;;;;5094965;28;20538;-61
2021/10/05 09:08:49;;;;;;;1.37;1.17;;;;;17.40;97622.00;;;;5094818;28;20585;-59
2021/10/05 09:11:18;;;;;;;1.07;1.00;;;;;17.40;97626.00;;;;5094886;28;20187;-59
2021/10/05 09:13:49;;;;;;;1.70;1.30;;;;;17.40;97630.00;;;;5094504;28;20261;-59
2021/10/05 09:16:27;;;;;;;1.60;1.03;;;;;17.30;97626.00;;;;5094579;28;20183;-59
2021/10/05 09:19:07;;;;;;;1.10;1.00;;;;;17.30;97626.00;;;;5095106;28;20183;-59
2021/10/05 09:21:39;;;;;;;2.13;1.23;;;;;17.30;97637.00;;;;5094234;28;20278;-59
2021/10/05 09:24:35;;;;;;;1.67;1.57;;;;;17.30;97636.00;;;;5094524;28;20207;-59
2021/10/05 09:27:04;;;;;;;3.23;1.50;;;;;17.30;97632.00;;;;5094451;28;20172;-59
2021/10/05 09:29:37;;;;;;;2.30;1.97;;;;;17.30;97618.00;;;;5094417;28;20192;-61
2021/10/05 09:32:09;;;;;;;3.67;1.80;;;;;17.30;97628.00;;;;5094521;28;20616;-59
2021/10/05 09:34:56;;;;;;;2.90;1.87;;;;;17.30;97618.00;;;;5094674;28;20269;-58
2021/10/05 09:37:31;;;;;;;3.90;2.47;;;;;17.30;97615.00;;;;5094550;28;20176;-59
2021/10/05 09:40:11;;;;;;;3.17;1.90;;;;;17.40;97612.00;;;;5094387;28;20172;-59
2021/10/05 09:42:39;;;;;;;3.43;2.63;;;;;17.40;97613.00;;;;5094545;28;20196;-58
2021/10/05 09:45:09;;;;;;;2.60;2.17;;;;;17.40;97610.00;;;;5094157;28;20207;-56
2021/10/05 09:47:43;;;;;;;2.50;2.13;;;;;17.40;97620.00;;;;5094432;28;20184;-58
2021/10/05 09:50:16;;;;;;;5.87;3.23;;;;;17.40;97633.00;;;;5094176;28;20177;-59
2021/10/05 09:52:54;;;;;;;4.67;3.73;;;;;17.40;97632.00;;;;5094115;28;20180;-58
2021/10/05 09:55:23;;;;;;;5.23;3.30;;;;;17.40;97621.00;;;;5094553;28;20207;-59
2021/10/05 09:57:51;;;;;;;4.50;3.27;;;;;17.40;97625.00;;;;5093999;28;20248;-59
2021/10/05 10:00:21;;;;;;;9.63;4.70;;;;;17.40;97627.00;;;;5094261;28;20191;-58
2021/10/05 10:02:48;;;;;;;7.47;3.90;;;;;17.40;97615.00;;;;5093835;28;20203;-59
2021/10/05 10:05:17;;;;;;;6.17;3.87;;;;;17.40;97622.00;;;;5093786;28;20210;-58
2021/10/05 10:07:46;;;;;;;6.23;4.10;;;;;17.40;97619.00;;;;5093835;28;20660;-59
2021/10/05 10:10:16;;;;;;;7.53;4.30;;;;;17.40;97613.00;;;;5093733;28;20191;-58
2021/10/05 10:12:51;;;;;;;8.03;4.93;;;;;17.40;97614.00;;;;5093717;28;20191;-59
2021/10/05 10:15:21;;;;;;;8.20;4.87;;;;;17.30;97618.00;;;;5093825;28;20301;-58
2021/10/05 10:17:49;;;;;;;6.70;4.70;;;;;17.40;97614.00;;;;5094528;28;20519;-59
2021/10/05 10:20:26;;;;;;;5.07;3.77;;;;;17.40;97610.00;;;;5093574;28;20242;-58
2021/10/05 10:22:54;;;;;;;6.00;4.27;;;;;17.40;97613.00;;;;5093518;28;20205;-59
2021/10/05 10:25:28;;;;;;;7.33;5.03;;;;;17.30;97596.00;;;;5093734;28;20208;-59
2021/10/05 10:27:58;;;;;;;6.47;4.40;;;;;17.30;97591.00;;;;5093765;28;20184;-59
2021/10/05 10:30:28;;;;;;;7.60;4.70;;;;;17.40;97589.00;;;;5093819;28;20267;-59
2021/10/05 10:33:00;;;;;;;7.27;4.77;;;;;17.40;97600.00;;;;5093487;28;20582;-58
2021/10/05 10:35:28;;;;;;;7.70;5.30;;;;;17.30;97594.00;;;;5093373;28;20620;-58
2021/10/05 10:37:56;;;;;;;8.07;4.50;;;;;17.30;97591.00;;;;5093413;28;20192;-59
2021/10/05 10:40:36;;;;;;;8.33;5.07;;;;;17.30;97593.00;;;;5093343;28;20551;-58
2021/10/05 10:43:14;;;;;;;8.33;5.10;;;;;17.40;97594.00;;;;5093632;28;20198;-58
2021/10/05 10:45:47;;;;;;;7.03;4.23;;;;;17.30;97592.00;;;;5093389;28;20562;-58
2021/10/05 10:48:29;;;;;;;6.87;4.10;;;;;17.30;97592.00;;;;5093350;28;20172;-59
2021/10/05 10:50:59;;;;;;;7.83;4.73;;;;;17.30;97596.00;;;;5093529;28;20228;-58
2021/10/05 10:53:38;;;;;;;7.53;5.00;;;;;17.30;97583.00;;;;5093139;28;20207;-58
2021/10/05 10:56:05;;;;;;;6.67;4.10;;;;;17.30;97584.00;;;;5093427;28;20222;-58
2021/10/05 10:58:36;;;;;;;6.97;5.07;;;;;17.30;97578.00;;;;5093710;28;20190;-58
2021/10/05 11:01:15;;;;;;;6.20;4.53;;;;;17.30;97576.00;;;;5093049;28;20203;-58
2021/10/05 11:03:42;;;;;;;6.60;4.50;;;;;17.30;97570.00;;;;5093055;28;20206;-59
2021/10/05 11:06:23;;;;;;;7.10;4.43;;;;;17.30;97564.00;;;;5093428;28;20202;-57
2021/10/05 11:08:56;;;;;;;5.90;4.83;;;;;17.30;97562.00;;;;5094207;28;20174;-58
2021/10/05 11:11:42;;;;;;;6.57;4.40;;;;;17.30;97559.00;;;;5097420;28;20186;-58
2021/10/05 11:14:18;;;;;;;8.60;5.70;;;;;17.40;97561.00;;;;5097128;28;20214;-57
2021/10/05 11:16:53;;;;;;;14.77;9.13;;;;;17.40;97559.00;;;;5097367;28;20176;-58
2021/10/05 11:19:20;;;;;;;12.60;9.20;;;;;17.40;97553.00;;;;5097225;28;20180;-57
2021/10/05 11:21:48;;;;;;;12.37;6.87;;;;;17.40;97554.00;;;;5097009;28;20612;-58
2021/10/05 11:24:16;;;;;;;10.33;7.53;;;;;17.40;97541.00;;;;5097252;28;20261;-56
2021/10/05 11:26:50;;;;;;;12.00;7.57;;;;;17.40;97539.00;;;;5096911;28;20663;-57
2021/10/05 11:29:27;;;;;;;13.80;9.47;;;;;17.50;97539.00;;;;5097148;28;20202;-57
2021/10/05 11:31:59;;;;;;;12.30;8.63;;;;;17.50;97543.00;;;;5097059;28;20182;-57
2021/10/05 11:34:28;;;;;;;11.37;8.30;;;;;17.50;97533.00;;;;5096849;28;20693;-59
2021/10/05 11:37:00;;;;;;;11.67;8.27;;;;;17.50;97525.00;;;;5096661;28;20188;-59
2021/10/05 11:39:29;;;;;;;12.23;8.63;;;;;17.50;97521.00;;;;5097191;28;20180;-59
2021/10/05 11:41:58;;;;;;;12.87;8.57;;;;;17.50;97518.00;;;;5096736;28;20204;-59
2021/10/05 11:44:28;;;;;;;12.90;8.67;;;;;17.50;97513.00;;;;5096417;28;20240;-60
2021/10/05 11:46:59;;;;;;;17.87;12.43;;;;;17.50;97511.00;;;;5096761;28;20576;-60
2021/10/05 11:49:38;;;;;;;14.47;11.17;;;;;17.50;97500.00;;;;5096394;28;20188;-58
2021/10/05 11:52:10;;;;;;;11.40;7.93;;;;;17.50;97491.00;;;;5096503;28;20180;-58
2021/10/05 11:54:37;;;;;;;10.57;6.90;;;;;17.40;97490.00;;;;5096406;28;20728;-58
2021/10/05 11:57:11;;;;;;;6.57;4.73;;;;;17.30;97483.00;;;;5096242;28;20240;-58
2021/10/05 11:59:37;;;;;;;5.70;4.07;;;;;17.30;97490.00;;;;5096629;28;20185;-57
2021/10/05 12:02:09;;;;;;;7.97;4.50;;;;;17.30;97480.00;;;;5096249;28;20207;-57
2021/10/05 12:04:38;;;;;;;7.73;4.30;;;;;17.20;97484.00;;;;5096338;28;20203;-58
2021/10/05 12:07:14;;;;;;;4.00;2.83;;;;;17.20;97483.00;;;;5096203;28;20650;-58
2021/10/05 12:09:41;;;;;;;4.83;2.60;;;;;17.20;97486.00;;;;5096302;28;20487;-57
2021/10/05 12:12:11;;;;;;;6.30;3.00;;;;;17.20;97482.00;;;;5096210;28;20666;-57
2021/10/05 12:14:41;;;;;;;3.17;2.20;;;;;17.20;97474.00;;;;5096245;28;20758;-56
2021/10/05 12:17:14;;;;;;;1.90;1.70;;;;;17.20;97469.00;;;;5096307;28;20168;-57
2021/10/05 12:19:52;;;;;;;4.30;1.77;;;;;17.20;97459.00;;;;5096074;28;20626;-56
2021/10/05 12:22:24;;;;;;;2.80;1.77;;;;;17.10;97466.00;;;;5095137;28;20220;-57
2021/10/05 12:24:54;;;;;;;4.50;1.93;;;;;17.20;97458.00;;;;5095776;28;20208;-58